sensor_id;sensor_type;location;lat;lon;timestamp;temperature;humidity
21023;DHT22;10669;51.076;3.714;2023-03-03T00:00:37;3.70;20.80
21023;DHT22;10669;51.076;3.714;2023-03-03T00:03:05;3.80;20.80
21023;DHT22;10669;51.076;3.714;2023-03-03T00:05:32;3.80;21.00
21023;DHT22;10669;51.076;3.714;2023-03-03T00:07:58;3.70;25.00
21023;DHT22;10669;51.076;3.714;2023-03-03T00:10:24;3.70;30.40
21023;DHT22;10669;51.076;3.714;2023-03-03T00:12:50;3.70;34.10
21023;DHT22;10669;51.076;3.714;2023-03-03T00:15:17;3.60;39.60
21023;DHT22;10669;51.076;3.714;2023-03-03T00:17:46;3.60;43.70
21023;DHT22;10669;51.076;3.714;2023-03-03T00:23:13;3.60;49.70
21023;DHT22;10669;51.076;3.714;2023-03-03T00:25:44;3.60;51.80
21023;DHT22;10669;51.076;3.714;2023-03-03T00:30:43;3.50;66.40
21023;DHT22;10669;51.076;3.714;2023-03-03T00:33:14;3.50;71.80
21023;DHT22;10669;51.076;3.714;2023-03-03T00:35:45;3.50;71.40
21023;DHT22;10669;51.076;3.714;2023-03-03T00:38:15;3.40;75.30
21023;DHT22;10669;51.076;3.714;2023-03-03T00:40:43;3.40;83.70
21023;DHT22;10669;51.076;3.714;2023-03-03T00:45:50;3.40;91.70
21023;DHT22;10669;51.076;3.714;2023-03-03T00:48:25;3.40;93.40
21023;DHT22;10669;51.076;3.714;2023-03-03T00:50:54;3.40;94.70
21023;DHT22;10669;51.076;3.714;2023-03-03T00:55:49;3.40;97.70
21023;DHT22;10669;51.076;3.714;2023-03-03T00:58:16;3.40;99.10
21023;DHT22;10669;51.076;3.714;2023-03-03T01:00:43;3.40;99.90
21023;DHT22;10669;51.076;3.714;2023-03-03T01:03:14;3.40;99.90
21023;DHT22;10669;51.076;3.714;2023-03-03T01:05:42;3.40;99.90
21023;DHT22;10669;51.076;3.714;2023-03-03T01:08:09;3.40;99.90
21023;DHT22;10669;51.076;3.714;2023-03-03T01:10:43;3.40;99.90
21023;DHT22;10669;51.076;3.714;2023-03-03T01:13:11;3.40;99.90
21023;DHT22;10669;51.076;3.714;2023-03-03T01:15:39;3.40;99.90
21023;DHT22;10669;51.076;3.714;2023-03-03T01:18:06;3.30;99.90
21023;DHT22;10669;51.076;3.714;2023-03-03T01:20:33;3.40;99.90
21023;DHT22;10669;51.076;3.714;2023-03-03T01:22:58;3.30;99.90
21023;DHT22;10669;51.076;3.714;2023-03-03T01:25:24;3.40;99.90
21023;DHT22;10669;51.076;3.714;2023-03-03T01:27:49;3.40;99.90
21023;DHT22;10669;51.076;3.714;2023-03-03T01:30:15;3.40;99.90
21023;DHT22;10669;51.076;3.714;2023-03-03T01:32:41;3.40;99.90
21023;DHT22;10669;51.076;3.714;2023-03-03T01:35:08;3.30;99.90
21023;DHT22;10669;51.076;3.714;2023-03-03T01:37:34;3.20;99.90
21023;DHT22;10669;51.076;3.714;2023-03-03T01:40:02;3.20;99.90
21023;DHT22;10669;51.076;3.714;2023-03-03T01:42:29;3.20;99.90
21023;DHT22;10669;51.076;3.714;2023-03-03T01:45:15;3.30;99.90
21023;DHT22;10669;51.076;3.714;2023-03-03T01:47:44;3.20;99.90
21023;DHT22;10669;51.076;3.714;2023-03-03T01:50:14;3.40;99.90
21023;DHT22;10669;51.076;3.714;2023-03-03T01:52:43;3.40;99.90
21023;DHT22;10669;51.076;3.714;2023-03-03T01:55:14;3.50;99.90
21023;DHT22;10669;51.076;3.714;2023-03-03T01:57:44;3.30;99.90
21023;DHT22;10669;51.076;3.714;2023-03-03T02:00:11;3.20;99.90
21023;DHT22;10669;51.076;3.714;2023-03-03T02:02:37;3.20;99.90
21023;DHT22;10669;51.076;3.714;2023-03-03T02:05:05;3.10;99.90
21023;DHT22;10669;51.076;3.714;2023-03-03T02:07:32;3.10;99.90
21023;DHT22;10669;51.076;3.714;2023-03-03T02:12:27;3.10;99.90
21023;DHT22;10669;51.076;3.714;2023-03-03T02:14:56;3.10;99.90
21023;DHT22;10669;51.076;3.714;2023-03-03T02:17:22;3.10;99.90
21023;DHT22;10669;51.076;3.714;2023-03-03T02:22:31;3.00;99.90
21023;DHT22;10669;51.076;3.714;2023-03-03T02:24:59;3.00;99.90
21023;DHT22;10669;51.076;3.714;2023-03-03T02:27:27;3.00;99.90
21023;DHT22;10669;51.076;3.714;2023-03-03T02:29:55;3.00;99.90
21023;DHT22;10669;51.076;3.714;2023-03-03T02:32:22;3.00;99.90
21023;DHT22;10669;51.076;3.714;2023-03-03T02:34:49;3.10;99.90
21023;DHT22;10669;51.076;3.714;2023-03-03T02:37:16;3.20;99.90
21023;DHT22;10669;51.076;3.714;2023-03-03T02:39:45;3.30;99.90
21023;DHT22;10669;51.076;3.714;2023-03-03T02:42:16;3.30;99.90
21023;DHT22;10669;51.076;3.714;2023-03-03T02:44:42;3.50;99.90
21023;DHT22;10669;51.076;3.714;2023-03-03T02:47:09;3.40;99.90
21023;DHT22;10669;51.076;3.714;2023-03-03T02:49:35;3.40;99.90
21023;DHT22;10669;51.076;3.714;2023-03-03T02:52:02;3.30;99.90
21023;DHT22;10669;51.076;3.714;2023-03-03T02:54:30;3.20;99.90
21023;DHT22;10669;51.076;3.714;2023-03-03T02:56:56;3.20;99.90
21023;DHT22;10669;51.076;3.714;2023-03-03T02:59:22;3.40;99.90
21023;DHT22;10669;51.076;3.714;2023-03-03T03:01:51;3.50;99.90
21023;DHT22;10669;51.076;3.714;2023-03-03T03:04:18;3.60;99.90
21023;DHT22;10669;51.076;3.714;2023-03-03T03:06:47;3.40;98.60
21023;DHT22;10669;51.076;3.714;2023-03-03T03:09:19;3.30;99.90
21023;DHT22;10669;51.076;3.714;2023-03-03T03:11:46;3.40;98.00
21023;DHT22;10669;51.076;3.714;2023-03-03T03:14:13;3.20;97.40
21023;DHT22;10669;51.076;3.714;2023-03-03T03:16:41;3.20;96.80
21023;DHT22;10669;51.076;3.714;2023-03-03T03:19:06;3.40;97.70
21023;DHT22;10669;51.076;3.714;2023-03-03T03:21:32;3.40;93.70
21023;DHT22;10669;51.076;3.714;2023-03-03T03:23:59;3.50;93.40
21023;DHT22;10669;51.076;3.714;2023-03-03T03:26:25;3.40;90.60
21023;DHT22;10669;51.076;3.714;2023-03-03T03:28:52;3.00;93.80
21023;DHT22;10669;51.076;3.714;2023-03-03T03:31:20;2.90;95.00
21023;DHT22;10669;51.076;3.714;2023-03-03T03:33:46;3.10;95.80
21023;DHT22;10669;51.076;3.714;2023-03-03T03:36:12;3.10;93.30
21023;DHT22;10669;51.076;3.714;2023-03-03T03:38:38;3.30;94.10
21023;DHT22;10669;51.076;3.714;2023-03-03T03:41:05;3.30;91.10
21023;DHT22;10669;51.076;3.714;2023-03-03T03:43:32;3.30;90.60
21023;DHT22;10669;51.076;3.714;2023-03-03T03:45:58;3.30;90.40
21023;DHT22;10669;51.076;3.714;2023-03-03T03:48:24;3.40;88.40
21023;DHT22;10669;51.076;3.714;2023-03-03T03:50:51;3.50;86.90
21023;DHT22;10669;51.076;3.714;2023-03-03T03:53:17;3.60;80.60
21023;DHT22;10669;51.076;3.714;2023-03-03T03:55:43;3.60;81.30
21023;DHT22;10669;51.076;3.714;2023-03-03T03:58:15;3.40;77.00
21023;DHT22;10669;51.076;3.714;2023-03-03T04:00:42;3.10;84.40
21023;DHT22;10669;51.076;3.714;2023-03-03T04:05:39;3.20;90.00
21023;DHT22;10669;51.076;3.714;2023-03-03T04:08:05;3.30;89.30
21023;DHT22;10669;51.076;3.714;2023-03-03T04:10:32;3.00;91.20
21023;DHT22;10669;51.076;3.714;2023-03-03T04:12:59;3.20;94.40
21023;DHT22;10669;51.076;3.714;2023-03-03T04:15:25;3.00;93.00
21023;DHT22;10669;51.076;3.714;2023-03-03T04:17:54;2.80;97.80
21023;DHT22;10669;51.076;3.714;2023-03-03T04:20:21;2.80;99.60
21023;DHT22;10669;51.076;3.714;2023-03-03T04:22:48;2.80;99.90
21023;DHT22;10669;51.076;3.714;2023-03-03T04:25:14;2.90;99.90
21023;DHT22;10669;51.076;3.714;2023-03-03T04:27:41;3.00;98.50
21023;DHT22;10669;51.076;3.714;2023-03-03T04:30:07;2.80;99.90
21023;DHT22;10669;51.076;3.714;2023-03-03T04:32:34;2.80;99.90
21023;DHT22;10669;51.076;3.714;2023-03-03T04:35:01;2.80;99.90
21023;DHT22;10669;51.076;3.714;2023-03-03T04:37:26;2.80;99.90
21023;DHT22;10669;51.076;3.714;2023-03-03T04:39:54;2.90;99.90
21023;DHT22;10669;51.076;3.714;2023-03-03T04:42:20;2.80;99.90
21023;DHT22;10669;51.076;3.714;2023-03-03T04:44:48;2.90;99.90
21023;DHT22;10669;51.076;3.714;2023-03-03T04:47:15;2.90;99.90
21023;DHT22;10669;51.076;3.714;2023-03-03T04:49:41;2.90;99.90
21023;DHT22;10669;51.076;3.714;2023-03-03T04:52:09;2.80;99.90
21023;DHT22;10669;51.076;3.714;2023-03-03T04:54:35;2.80;99.90
21023;DHT22;10669;51.076;3.714;2023-03-03T04:57:01;2.90;99.90
21023;DHT22;10669;51.076;3.714;2023-03-03T04:59:28;2.80;99.90
21023;DHT22;10669;51.076;3.714;2023-03-03T05:01:55;2.90;99.90
21023;DHT22;10669;51.076;3.714;2023-03-03T05:04:22;2.80;99.90
21023;DHT22;10669;51.076;3.714;2023-03-03T05:06:47;2.80;99.90
21023;DHT22;10669;51.076;3.714;2023-03-03T05:09:16;2.80;99.90
21023;DHT22;10669;51.076;3.714;2023-03-03T05:11:42;2.80;99.90
21023;DHT22;10669;51.076;3.714;2023-03-03T05:14:08;3.00;99.90
21023;DHT22;10669;51.076;3.714;2023-03-03T05:16:35;2.90;99.70
21023;DHT22;10669;51.076;3.714;2023-03-03T05:19:02;2.80;99.90
21023;DHT22;10669;51.076;3.714;2023-03-03T05:21:30;2.70;99.90
21023;DHT22;10669;51.076;3.714;2023-03-03T05:23:57;2.80;99.90
21023;DHT22;10669;51.076;3.714;2023-03-03T05:26:23;2.80;99.90
21023;DHT22;10669;51.076;3.714;2023-03-03T05:28:49;2.80;99.90
21023;DHT22;10669;51.076;3.714;2023-03-03T05:31:16;2.90;99.90
21023;DHT22;10669;51.076;3.714;2023-03-03T05:33:42;2.90;99.90
21023;DHT22;10669;51.076;3.714;2023-03-03T05:36:14;2.90;99.90
21023;DHT22;10669;51.076;3.714;2023-03-03T05:38:42;2.90;99.90
21023;DHT22;10669;51.076;3.714;2023-03-03T05:41:08;3.00;99.90
21023;DHT22;10669;51.076;3.714;2023-03-03T05:43:35;2.90;99.90
21023;DHT22;10669;51.076;3.714;2023-03-03T05:46:00;2.90;99.90
21023;DHT22;10669;51.076;3.714;2023-03-03T05:48:27;2.80;99.90
21023;DHT22;10669;51.076;3.714;2023-03-03T05:50:56;2.80;99.90
21023;DHT22;10669;51.076;3.714;2023-03-03T05:53:22;2.70;99.90
21023;DHT22;10669;51.076;3.714;2023-03-03T05:55:47;2.60;99.90
21023;DHT22;10669;51.076;3.714;2023-03-03T05:58:13;2.60;99.90
21023;DHT22;10669;51.076;3.714;2023-03-03T06:00:39;2.50;99.90
21023;DHT22;10669;51.076;3.714;2023-03-03T06:03:05;2.50;99.90
21023;DHT22;10669;51.076;3.714;2023-03-03T06:05:32;2.50;99.90
21023;DHT22;10669;51.076;3.714;2023-03-03T06:07:59;2.40;99.90
21023;DHT22;10669;51.076;3.714;2023-03-03T06:10:25;2.30;99.90
21023;DHT22;10669;51.076;3.714;2023-03-03T06:12:51;2.30;99.90
21023;DHT22;10669;51.076;3.714;2023-03-03T06:15:17;2.20;99.90
21023;DHT22;10669;51.076;3.714;2023-03-03T06:17:42;2.20;99.90
21023;DHT22;10669;51.076;3.714;2023-03-03T06:20:08;2.10;99.90
21023;DHT22;10669;51.076;3.714;2023-03-03T06:22:34;2.10;99.90
21023;DHT22;10669;51.076;3.714;2023-03-03T06:24:59;2.10;99.90
21023;DHT22;10669;51.076;3.714;2023-03-03T06:27:27;1.90;99.90
21023;DHT22;10669;51.076;3.714;2023-03-03T06:29:53;1.80;99.90
21023;DHT22;10669;51.076;3.714;2023-03-03T06:32:19;1.80;99.90
21023;DHT22;10669;51.076;3.714;2023-03-03T06:34:45;1.70;99.90
21023;DHT22;10669;51.076;3.714;2023-03-03T06:37:13;1.80;99.90
21023;DHT22;10669;51.076;3.714;2023-03-03T06:39:38;1.60;99.90
21023;DHT22;10669;51.076;3.714;2023-03-03T06:42:04;1.50;99.90
21023;DHT22;10669;51.076;3.714;2023-03-03T06:44:30;1.50;99.90
21023;DHT22;10669;51.076;3.714;2023-03-03T06:46:59;1.60;99.90
21023;DHT22;10669;51.076;3.714;2023-03-03T06:49:25;1.40;99.90
21023;DHT22;10669;51.076;3.714;2023-03-03T06:51:54;1.40;99.90
21023;DHT22;10669;51.076;3.714;2023-03-03T06:54:32;1.40;99.90
21023;DHT22;10669;51.076;3.714;2023-03-03T06:57:01;1.40;99.90
21023;DHT22;10669;51.076;3.714;2023-03-03T06:59:35;1.30;99.90
21023;DHT22;10669;51.076;3.714;2023-03-03T07:02:04;1.30;99.90
21023;DHT22;10669;51.076;3.714;2023-03-03T07:04:37;1.40;99.90
21023;DHT22;10669;51.076;3.714;2023-03-03T07:07:23;1.40;99.90
21023;DHT22;10669;51.076;3.714;2023-03-03T07:09:50;1.40;99.90
21023;DHT22;10669;51.076;3.714;2023-03-03T07:12:20;1.50;99.90
21023;DHT22;10669;51.076;3.714;2023-03-03T07:14:49;1.50;99.90
21023;DHT22;10669;51.076;3.714;2023-03-03T07:17:20;1.50;99.90
21023;DHT22;10669;51.076;3.714;2023-03-03T07:19:46;1.50;99.90
21023;DHT22;10669;51.076;3.714;2023-03-03T07:24:51;1.60;99.90
21023;DHT22;10669;51.076;3.714;2023-03-03T07:27:21;1.50;99.90
21023;DHT22;10669;51.076;3.714;2023-03-03T07:29:52;1.50;99.90
21023;DHT22;10669;51.076;3.714;2023-03-03T07:32:29;1.60;99.90
21023;DHT22;10669;51.076;3.714;2023-03-03T07:35:00;1.60;99.90
21023;DHT22;10669;51.076;3.714;2023-03-03T07:37:44;1.70;99.90
21023;DHT22;10669;51.076;3.714;2023-03-03T07:42:57;1.70;99.90
21023;DHT22;10669;51.076;3.714;2023-03-03T07:45:29;1.70;99.90
21023;DHT22;10669;51.076;3.714;2023-03-03T07:50:27;1.80;99.90
21023;DHT22;10669;51.076;3.714;2023-03-03T07:53:00;1.80;99.90
21023;DHT22;10669;51.076;3.714;2023-03-03T07:55:33;1.80;99.90
21023;DHT22;10669;51.076;3.714;2023-03-03T07:58:21;1.80;99.90
21023;DHT22;10669;51.076;3.714;2023-03-03T08:03:34;2.30;99.90
21023;DHT22;10669;51.076;3.714;2023-03-03T08:06:09;2.10;99.90
21023;DHT22;10669;51.076;3.714;2023-03-03T08:08:48;2.00;99.90
21023;DHT22;10669;51.076;3.714;2023-03-03T08:11:14;2.00;99.90
21023;DHT22;10669;51.076;3.714;2023-03-03T08:13:41;2.10;99.90
21023;DHT22;10669;51.076;3.714;2023-03-03T08:18:40;2.20;99.90
21023;DHT22;10669;51.076;3.714;2023-03-03T08:21:18;2.30;99.90
21023;DHT22;10669;51.076;3.714;2023-03-03T08:23:47;2.30;99.90
21023;DHT22;10669;51.076;3.714;2023-03-03T08:26:19;2.30;99.90
21023;DHT22;10669;51.076;3.714;2023-03-03T08:28:46;2.60;99.90
21023;DHT22;10669;51.076;3.714;2023-03-03T08:31:14;2.60;99.90
21023;DHT22;10669;51.076;3.714;2023-03-03T08:33:49;2.60;99.90
21023;DHT22;10669;51.076;3.714;2023-03-03T08:36:15;2.30;99.90
21023;DHT22;10669;51.076;3.714;2023-03-03T08:41:10;2.40;99.90
21023;DHT22;10669;51.076;3.714;2023-03-03T08:43:49;2.50;99.90
21023;DHT22;10669;51.076;3.714;2023-03-03T08:46:16;2.50;99.90
21023;DHT22;10669;51.076;3.714;2023-03-03T08:48:42;2.50;99.90
21023;DHT22;10669;51.076;3.714;2023-03-03T08:51:14;2.50;99.90
21023;DHT22;10669;51.076;3.714;2023-03-03T08:53:41;2.50;99.90
21023;DHT22;10669;51.076;3.714;2023-03-03T08:58:43;2.40;99.90
21023;DHT22;10669;51.076;3.714;2023-03-03T09:01:16;2.60;99.90
21023;DHT22;10669;51.076;3.714;2023-03-03T09:06:10;2.60;99.90
21023;DHT22;10669;51.076;3.714;2023-03-03T09:08:36;2.70;99.90
21023;DHT22;10669;51.076;3.714;2023-03-03T09:11:02;2.80;99.90
21023;DHT22;10669;51.076;3.714;2023-03-03T09:13:30;2.70;99.90
21023;DHT22;10669;51.076;3.714;2023-03-03T09:15:57;2.70;99.90
21023;DHT22;10669;51.076;3.714;2023-03-03T09:18:37;2.70;99.90
21023;DHT22;10669;51.076;3.714;2023-03-03T09:23:56;2.60;99.90
21023;DHT22;10669;51.076;3.714;2023-03-03T09:26:24;2.80;99.90
21023;DHT22;10669;51.076;3.714;2023-03-03T09:31:41;2.70;99.90
21023;DHT22;10669;51.076;3.714;2023-03-03T09:34:22;2.70;99.90
21023;DHT22;10669;51.076;3.714;2023-03-03T09:36:50;2.80;99.90
21023;DHT22;10669;51.076;3.714;2023-03-03T09:39:16;2.80;99.90
21023;DHT22;10669;51.076;3.714;2023-03-03T09:41:57;2.80;99.90
21023;DHT22;10669;51.076;3.714;2023-03-03T09:52:44;3.00;99.90
21023;DHT22;10669;51.076;3.714;2023-03-03T09:55:21;3.00;99.90
21023;DHT22;10669;51.076;3.714;2023-03-03T10:00:26;3.20;99.90
21023;DHT22;10669;51.076;3.714;2023-03-03T10:05:33;3.40;99.90
21023;DHT22;10669;51.076;3.714;2023-03-03T10:08:10;3.40;99.90
21023;DHT22;10669;51.076;3.714;2023-03-03T10:13:40;3.60;99.90
21023;DHT22;10669;51.076;3.714;2023-03-03T10:19:00;3.90;97.40
21023;DHT22;10669;51.076;3.714;2023-03-03T10:21:35;3.80;97.20
21023;DHT22;10669;51.076;3.714;2023-03-03T10:24:04;3.80;96.10
21023;DHT22;10669;51.076;3.714;2023-03-03T10:29:19;3.90;94.50
21023;DHT22;10669;51.076;3.714;2023-03-03T10:31:49;4.00;95.40
21023;DHT22;10669;51.076;3.714;2023-03-03T10:37:08;4.10;90.30
21023;DHT22;10669;51.076;3.714;2023-03-03T10:39:47;4.20;90.90
21023;DHT22;10669;51.076;3.714;2023-03-03T10:42:25;4.20;88.50
21023;DHT22;10669;51.076;3.714;2023-03-03T10:53:01;4.30;91.00
21023;DHT22;10669;51.076;3.714;2023-03-03T10:58:31;4.40;82.30
21023;DHT22;10669;51.076;3.714;2023-03-03T11:03:47;4.60;74.70
21023;DHT22;10669;51.076;3.714;2023-03-03T11:06:34;4.60;67.10
21023;DHT22;10669;51.076;3.714;2023-03-03T11:11:42;4.50;70.00
21023;DHT22;10669;51.076;3.714;2023-03-03T11:14:12;4.80;75.20
21023;DHT22;10669;51.076;3.714;2023-03-03T11:21:46;4.70;71.60
21023;DHT22;10669;51.076;3.714;2023-03-03T11:26:59;5.20;67.00
21023;DHT22;10669;51.076;3.714;2023-03-03T11:37:21;4.90;54.20
21023;DHT22;10669;51.076;3.714;2023-03-03T11:39:52;5.10;52.10
21023;DHT22;10669;51.076;3.714;2023-03-03T11:44:49;5.40;48.20
21023;DHT22;10669;51.076;3.714;2023-03-03T11:47:33;5.50;48.40
21023;DHT22;10669;51.076;3.714;2023-03-03T11:53:17;5.90;36.00
21023;DHT22;10669;51.076;3.714;2023-03-03T11:55:47;5.70;38.20
21023;DHT22;10669;51.076;3.714;2023-03-03T11:58:21;5.60;45.80
21023;DHT22;10669;51.076;3.714;2023-03-03T12:03:39;5.70;38.80
21023;DHT22;10669;51.076;3.714;2023-03-03T12:09:00;5.50;35.20
21023;DHT22;10669;51.076;3.714;2023-03-03T12:11:38;5.50;38.90
21023;DHT22;10669;51.076;3.714;2023-03-03T12:29:41;6.10;30.20
21023;DHT22;10669;51.076;3.714;2023-03-03T12:32:21;6.10;25.00
21023;DHT22;10669;51.076;3.714;2023-03-03T12:34:57;6.30;30.30
21023;DHT22;10669;51.076;3.714;2023-03-03T12:37:29;6.30;23.00
21023;DHT22;10669;51.076;3.714;2023-03-03T12:56:07;6.40;1.00
21023;DHT22;10669;51.076;3.714;2023-03-03T12:58:39;6.60;1.00
21023;DHT22;10669;51.076;3.714;2023-03-03T13:09:48;6.40;1.00
21023;DHT22;10669;51.076;3.714;2023-03-03T13:22:54;7.20;1.00
21023;DHT22;10669;51.076;3.714;2023-03-03T13:25:41;7.50;1.00
21023;DHT22;10669;51.076;3.714;2023-03-03T13:30:54;8.00;1.00
21023;DHT22;10669;51.076;3.714;2023-03-03T13:33:33;8.00;1.00
21023;DHT22;10669;51.076;3.714;2023-03-03T13:36:10;8.10;1.00
21023;DHT22;10669;51.076;3.714;2023-03-03T13:38:56;8.40;1.00
21023;DHT22;10669;51.076;3.714;2023-03-03T13:46:53;7.50;1.00
21023;DHT22;10669;51.076;3.714;2023-03-03T13:52:05;7.50;1.00
21023;DHT22;10669;51.076;3.714;2023-03-03T13:54:51;7.90;1.00
21023;DHT22;10669;51.076;3.714;2023-03-03T14:18:02;7.90;1.00
21023;DHT22;10669;51.076;3.714;2023-03-03T14:20:31;8.00;1.00
21023;DHT22;10669;51.076;3.714;2023-03-03T14:23:00;7.90;1.00
21023;DHT22;10669;51.076;3.714;2023-03-03T14:28:12;7.50;1.00
21023;DHT22;10669;51.076;3.714;2023-03-03T14:30:43;7.80;1.00
21023;DHT22;10669;51.076;3.714;2023-03-03T14:35:47;7.80;1.00
21023;DHT22;10669;51.076;3.714;2023-03-03T14:38:15;7.70;1.00
21023;DHT22;10669;51.076;3.714;2023-03-03T14:40:45;7.70;1.00
21023;DHT22;10669;51.076;3.714;2023-03-03T14:43:22;7.70;1.00
21023;DHT22;10669;51.076;3.714;2023-03-03T14:48:28;7.90;1.00
21023;DHT22;10669;51.076;3.714;2023-03-03T14:50:58;8.20;1.00
21023;DHT22;10669;51.076;3.714;2023-03-03T14:56:13;8.40;1.00
21023;DHT22;10669;51.076;3.714;2023-03-03T14:58:40;8.40;99.90
21023;DHT22;10669;51.076;3.714;2023-03-03T15:01:10;8.20;1.00
21023;DHT22;10669;51.076;3.714;2023-03-03T15:03:44;8.00;1.00
21023;DHT22;10669;51.076;3.714;2023-03-03T15:08:39;7.80;1.00
21023;DHT22;10669;51.076;3.714;2023-03-03T15:14:09;8.10;1.00
21023;DHT22;10669;51.076;3.714;2023-03-03T15:16:35;7.90;1.00
21023;DHT22;10669;51.076;3.714;2023-03-03T15:21:55;7.50;1.00
21023;DHT22;10669;51.076;3.714;2023-03-03T15:24:44;8.00;1.00
21023;DHT22;10669;51.076;3.714;2023-03-03T15:29:40;8.30;99.90
21023;DHT22;10669;51.076;3.714;2023-03-03T15:32:23;8.20;99.90
21023;DHT22;10669;51.076;3.714;2023-03-03T15:42:21;8.50;99.90
21023;DHT22;10669;51.076;3.714;2023-03-03T15:47:42;8.50;99.90
21023;DHT22;10669;51.076;3.714;2023-03-03T16:01:33;7.80;1.00
21023;DHT22;10669;51.076;3.714;2023-03-03T16:04:08;8.10;99.90
21023;DHT22;10669;51.076;3.714;2023-03-03T16:12:01;8.10;99.90
21023;DHT22;10669;51.076;3.714;2023-03-03T16:14:47;8.00;99.90
21023;DHT22;10669;51.076;3.714;2023-03-03T16:17:31;7.90;99.90
21023;DHT22;10669;51.076;3.714;2023-03-03T16:25:59;8.10;99.90
21023;DHT22;10669;51.076;3.714;2023-03-03T16:30:49;8.10;99.90
21023;DHT22;10669;51.076;3.714;2023-03-03T16:33:21;8.20;20.10
21023;DHT22;10669;51.076;3.714;2023-03-03T16:38:16;8.10;1.00
21023;DHT22;10669;51.076;3.714;2023-03-03T16:40:48;8.00;1.00
21023;DHT22;10669;51.076;3.714;2023-03-03T16:45:48;8.00;99.90
21023;DHT22;10669;51.076;3.714;2023-03-03T16:56:20;8.10;99.90
21023;DHT22;10669;51.076;3.714;2023-03-03T17:01:20;8.10;1.00
21023;DHT22;10669;51.076;3.714;2023-03-03T17:03:55;7.90;1.00
21023;DHT22;10669;51.076;3.714;2023-03-03T17:11:54;7.50;1.00
21023;DHT22;10669;51.076;3.714;2023-03-03T17:14:44;7.60;1.00
21023;DHT22;10669;51.076;3.714;2023-03-03T17:22:40;7.50;1.00
21023;DHT22;10669;51.076;3.714;2023-03-03T17:25:43;7.20;1.00
21023;DHT22;10669;51.076;3.714;2023-03-03T17:28:03;7.20;1.00
21023;DHT22;10669;51.076;3.714;2023-03-03T17:35:35;7.40;1.00
21023;DHT22;10669;51.076;3.714;2023-03-03T17:43:28;7.30;1.00
21023;DHT22;10669;51.076;3.714;2023-03-03T17:45:59;7.30;1.00
21023;DHT22;10669;51.076;3.714;2023-03-03T17:53:53;7.70;1.00
21023;DHT22;10669;51.076;3.714;2023-03-03T17:56:24;7.50;1.00
21023;DHT22;10669;51.076;3.714;2023-03-03T18:04:11;7.30;1.00
21023;DHT22;10669;51.076;3.714;2023-03-03T18:22:28;7.20;1.00
21023;DHT22;10669;51.076;3.714;2023-03-03T18:25:07;7.20;1.00
21023;DHT22;10669;51.076;3.714;2023-03-03T18:27:43;7.10;1.00
21023;DHT22;10669;51.076;3.714;2023-03-03T18:41:02;6.80;1.00
21023;DHT22;10669;51.076;3.714;2023-03-03T18:43:48;6.80;1.00
21023;DHT22;10669;51.076;3.714;2023-03-03T18:48:52;6.90;1.00
21023;DHT22;10669;51.076;3.714;2023-03-03T19:07:15;6.40;1.00
21023;DHT22;10669;51.076;3.714;2023-03-03T19:09:43;6.40;1.00
21023;DHT22;10669;51.076;3.714;2023-03-03T19:12:10;6.30;1.00
21023;DHT22;10669;51.076;3.714;2023-03-03T19:14:47;6.40;1.00
21023;DHT22;10669;51.076;3.714;2023-03-03T19:25:16;6.20;1.00
21023;DHT22;10669;51.076;3.714;2023-03-03T19:38:48;6.50;1.00
21023;DHT22;10669;51.076;3.714;2023-03-03T19:41:50;6.30;1.00
21023;DHT22;10669;51.076;3.714;2023-03-03T19:49:37;6.10;1.00
21023;DHT22;10669;51.076;3.714;2023-03-03T19:54:57;6.30;99.90
21023;DHT22;10669;51.076;3.714;2023-03-03T20:00:19;6.10;1.00
21023;DHT22;10669;51.076;3.714;2023-03-03T20:05:23;6.30;1.00
21023;DHT22;10669;51.076;3.714;2023-03-03T20:08:00;6.40;99.90
21023;DHT22;10669;51.076;3.714;2023-03-03T20:18:01;6.20;1.00
21023;DHT22;10669;51.076;3.714;2023-03-03T20:20:34;6.30;1.00
21023;DHT22;10669;51.076;3.714;2023-03-03T20:25:58;6.20;1.00
21023;DHT22;10669;51.076;3.714;2023-03-03T20:28:34;6.20;99.90
21023;DHT22;10669;51.076;3.714;2023-03-03T20:34:13;6.00;1.00
21023;DHT22;10669;51.076;3.714;2023-03-03T20:57:55;6.10;1.00
21023;DHT22;10669;51.076;3.714;2023-03-03T21:00:31;6.10;1.00
21023;DHT22;10669;51.076;3.714;2023-03-03T21:05:52;6.10;1.00
21023;DHT22;10669;51.076;3.714;2023-03-03T21:08:19;6.10;1.00
21023;DHT22;10669;51.076;3.714;2023-03-03T21:10:44;6.10;1.00
21023;DHT22;10669;51.076;3.714;2023-03-03T21:13:33;6.10;1.00
21023;DHT22;10669;51.076;3.714;2023-03-03T21:16:49;6.10;1.00
21023;DHT22;10669;51.076;3.714;2023-03-03T21:21:33;6.20;1.00
21023;DHT22;10669;51.076;3.714;2023-03-03T21:23:59;6.20;1.00
21023;DHT22;10669;51.076;3.714;2023-03-03T21:31:44;6.40;1.00
21023;DHT22;10669;51.076;3.714;2023-03-03T21:34:19;6.60;1.00
21023;DHT22;10669;51.076;3.714;2023-03-03T21:36:46;6.60;1.00
21023;DHT22;10669;51.076;3.714;2023-03-03T21:47:03;6.30;1.00
21023;DHT22;10669;51.076;3.714;2023-03-03T21:49:30;6.20;1.00
21023;DHT22;10669;51.076;3.714;2023-03-03T21:51:58;6.10;1.00
21023;DHT22;10669;51.076;3.714;2023-03-03T21:54:24;6.10;1.00
21023;DHT22;10669;51.076;3.714;2023-03-03T21:56:51;6.00;1.00
21023;DHT22;10669;51.076;3.714;2023-03-03T21:59:23;6.10;1.00
21023;DHT22;10669;51.076;3.714;2023-03-03T22:01:49;6.30;1.00
21023;DHT22;10669;51.076;3.714;2023-03-03T22:04:18;6.40;1.00
21023;DHT22;10669;51.076;3.714;2023-03-03T22:06:47;6.30;1.00
21023;DHT22;10669;51.076;3.714;2023-03-03T22:09:16;6.30;1.00
21023;DHT22;10669;51.076;3.714;2023-03-03T22:11:44;6.50;1.00
21023;DHT22;10669;51.076;3.714;2023-03-03T22:14:11;6.60;1.00
21023;DHT22;10669;51.076;3.714;2023-03-03T22:16:39;6.40;1.00
21023;DHT22;10669;51.076;3.714;2023-03-03T22:19:06;6.40;1.00
21023;DHT22;10669;51.076;3.714;2023-03-03T22:21:42;6.30;1.00
21023;DHT22;10669;51.076;3.714;2023-03-03T22:24:08;6.30;1.00
21023;DHT22;10669;51.076;3.714;2023-03-03T22:26:37;6.40;1.00
21023;DHT22;10669;51.076;3.714;2023-03-03T22:29:04;6.30;1.00
21023;DHT22;10669;51.076;3.714;2023-03-03T22:31:31;6.50;1.00
21023;DHT22;10669;51.076;3.714;2023-03-03T22:33:59;6.60;1.00
21023;DHT22;10669;51.076;3.714;2023-03-03T22:36:25;6.70;1.00
21023;DHT22;10669;51.076;3.714;2023-03-03T22:38:54;6.60;1.00
21023;DHT22;10669;51.076;3.714;2023-03-03T22:41:22;6.40;1.00
21023;DHT22;10669;51.076;3.714;2023-03-03T22:43:52;6.30;1.00
21023;DHT22;10669;51.076;3.714;2023-03-03T22:46:18;6.10;1.00
21023;DHT22;10669;51.076;3.714;2023-03-03T22:48:49;6.20;1.00
21023;DHT22;10669;51.076;3.714;2023-03-03T22:51:16;6.20;1.00
21023;DHT22;10669;51.076;3.714;2023-03-03T22:53:45;6.20;1.00
21023;DHT22;10669;51.076;3.714;2023-03-03T22:56:17;6.10;1.00
21023;DHT22;10669;51.076;3.714;2023-03-03T22:58:46;6.20;1.00
21023;DHT22;10669;51.076;3.714;2023-03-03T23:01:11;6.20;1.00
21023;DHT22;10669;51.076;3.714;2023-03-03T23:03:39;6.30;1.00
21023;DHT22;10669;51.076;3.714;2023-03-03T23:06:05;6.10;1.00
21023;DHT22;10669;51.076;3.714;2023-03-03T23:08:33;6.10;1.00
21023;DHT22;10669;51.076;3.714;2023-03-03T23:11:02;6.30;1.00
21023;DHT22;10669;51.076;3.714;2023-03-03T23:13:27;6.60;1.00
21023;DHT22;10669;51.076;3.714;2023-03-03T23:16:00;6.50;1.00